createdAt,value
2019-01-24T00:07:43.296Z,96638.88
2019-01-24T00:17:45.360Z,96636.62
2019-01-24T00:27:47.460Z,96653.70
2019-01-24T00:37:49.549Z,96655.63
2019-01-24T00:47:51.666Z,96651.81
2019-01-24T00:57:53.790Z,96646.57
2019-01-24T01:07:55.855Z,96657.63
2019-01-24T01:17:57.921Z,96683.08
2019-01-24T01:28:00.151Z,96677.16
2019-01-24T01:38:02.520Z,96675.87
2019-01-24T01:48:04.820Z,96690.04
2019-01-24T01:58:06.965Z,96697.66
2019-01-24T02:08:09.006Z,96698.95
2019-01-24T02:18:11.064Z,96696.43
2019-01-24T02:28:13.152Z,96692.43
2019-01-24T02:38:15.287Z,96683.28
2019-01-24T02:48:17.379Z,96682.26
2019-01-24T02:58:19.444Z,96676.28
2019-01-24T03:08:21.694Z,96674.31
2019-01-24T03:18:24.981Z,96690.64
2019-01-24T03:28:27.048Z,96686.36
2019-01-24T03:38:29.160Z,96686.14
2019-01-24T03:48:31.234Z,96680.17
2019-01-24T03:58:33.314Z,96706.66
2019-01-24T04:08:35.427Z,96710.36
2019-01-24T04:18:37.514Z,96716.48
2019-01-24T04:28:39.572Z,96724.37
2019-01-24T04:38:41.647Z,96717.35
2019-01-24T04:48:43.754Z,96734.10
2019-01-24T04:58:45.806Z,96741.96
2019-01-24T05:08:47.355Z,96745.19
2019-01-24T05:18:48.841Z,96754.34
2019-01-24T05:28:50.340Z,96742.81
2019-01-24T05:38:51.795Z,96763.39
2019-01-24T05:48:54.245Z,96759.63
2019-01-24T05:58:55.772Z,96783.59
2019-01-24T06:08:57.210Z,96792.53
2019-01-24T06:18:58.895Z,96776.33
2019-01-24T06:29:02.846Z,96800.95
2019-01-24T06:39:06.716Z,96793.38
2019-01-24T06:49:08.192Z,96812.80
2019-01-24T06:59:09.674Z,96830.27
2019-01-24T07:09:11.256Z,96842.45
2019-01-24T07:19:12.683Z,96842.33
2019-01-24T07:29:14.128Z,96851.70
2019-01-24T07:39:15.606Z,96862.37
2019-01-24T07:49:17.025Z,96876.51
2019-01-24T07:59:18.522Z,96886.28
2019-01-24T08:09:23.103Z,96905.19
2019-01-24T08:19:24.549Z,96896.60
2019-01-24T08:29:25.988Z,96905.38
2019-01-24T08:39:28.613Z,96906.77
2019-01-24T08:49:30.055Z,96914.27
2019-01-24T08:59:31.576Z,96918.50
2019-01-24T09:09:33.072Z,96930.89
2019-01-24T09:19:34.576Z,96942.42
2019-01-24T09:29:36.056Z,96949.99
2019-01-24T09:39:37.488Z,96958.56
2019-01-24T09:49:38.988Z,96953.59
2019-01-24T09:59:40.616Z,96958.42
2019-01-24T10:09:42.097Z,96937.14
2019-01-24T10:19:43.531Z,96941.08
2019-01-24T10:29:44.979Z,96942.20
2019-01-24T10:39:46.454Z,96933.05
2019-01-24T10:49:47.886Z,96937.34
2019-01-24T10:59:49.370Z,96929.66
2019-01-24T11:09:50.853Z,96927.93
2019-01-24T11:19:52.298Z,96930.66
2019-01-24T11:29:53.740Z,96921.95
2019-01-24T11:39:55.242Z,96926.52
2019-01-24T11:49:56.689Z,96920.45
2019-01-24T11:59:58.169Z,96922.19
2019-01-24T12:09:59.657Z,96913.64
2019-01-24T12:20:02.076Z,96917.34
2019-01-24T12:30:28.645Z,96899.16
2019-01-24T12:40:30.078Z,96903.22
2019-01-24T12:50:31.767Z,96889.03
2019-01-24T13:00:35.737Z,96885.20
2019-01-24T13:10:38.296Z,96892.78
2019-01-24T13:20:39.951Z,96889.58
2019-01-24T13:30:41.409Z,96897.94
2019-01-24T13:40:42.856Z,96907.69
2019-01-24T13:50:44.326Z,96903.49
2019-01-24T14:00:46.043Z,96902.08
2019-01-24T14:10:47.652Z,96911.55
2019-01-24T14:20:49.194Z,96915.02
2019-01-24T14:30:51.892Z,96912.84
2019-01-24T14:40:53.328Z,96908.69
2019-01-24T14:50:54.787Z,96898.92
2019-01-24T15:01:00.842Z,96887.99
2019-01-24T15:11:02.288Z,96893.43
2019-01-24T15:21:04.146Z,96887.62
2019-01-24T15:31:05.934Z,96896.30
2019-01-24T15:41:07.608Z,96896.82
2019-01-24T15:51:09.249Z,96902.48
2019-01-24T16:01:10.878Z,96908.00
2019-01-24T16:11:12.309Z,96909.09
2019-01-24T16:21:13.759Z,96915.08
2019-01-24T16:31:15.264Z,96922.35
2019-01-24T16:41:16.712Z,96915.88
2019-01-24T16:51:18.154Z,96924.02
2019-01-24T17:01:19.857Z,96925.89
2019-01-24T17:11:21.290Z,96921.95
2019-01-24T17:21:22.826Z,96927.90
2019-01-24T17:31:24.317Z,96931.30
2019-01-24T17:41:25.789Z,96924.13
2019-01-24T17:51:27.234Z,96929.77
2019-01-24T18:01:28.717Z,96930.05
2019-01-24T18:11:30.204Z,96937.22
2019-01-24T18:21:31.753Z,96938.81
2019-01-24T18:31:33.288Z,96938.52
2019-01-24T18:41:35.074Z,96937.93
2019-01-24T18:51:36.754Z,96942.11
2019-01-24T19:01:38.368Z,96936.93
2019-01-24T19:11:39.983Z,96936.02
2019-01-24T19:21:43.114Z,96924.83
2019-01-24T19:31:44.809Z,96927.06
2019-01-24T19:41:46.337Z,96930.59
2019-01-24T19:51:47.773Z,96929.66
2019-01-24T20:01:49.315Z,96937.77
2019-01-24T20:11:50.865Z,96934.75
2019-01-24T20:21:52.314Z,96937.02
2019-01-24T20:31:53.898Z,96925.83
2019-01-24T20:42:10.803Z,96939.30
2019-01-24T20:52:17.177Z,96935.82
2019-01-24T21:02:18.646Z,96939.70
2019-01-24T21:12:20.110Z,96935.06
2019-01-24T21:22:21.718Z,96930.12
2019-01-24T21:32:23.147Z,96933.24
2019-01-24T21:42:24.590Z,96926.30
2019-01-24T21:52:26.166Z,96918.31
2019-01-24T22:02:27.692Z,96917.77
2019-01-24T22:12:29.125Z,96912.13
2019-01-24T22:22:30.602Z,96923.70
2019-01-24T22:32:32.038Z,96922.60
2019-01-24T22:42:33.497Z,96914.41
2019-01-24T22:52:34.995Z,96920.02
2019-01-24T23:02:36.646Z,96919.13
2019-01-24T23:12:38.128Z,96914.41
2019-01-24T23:22:39.615Z,96912.07
2019-01-24T23:32:44.270Z,96911.20
2019-01-24T23:42:45.806Z,96913.84
2019-01-24T23:52:47.269Z,96913.80
